createdAt,value
2022-10-11T00:02:09.765Z,9.85
2022-10-11T00:04:36.586Z,9.92
2022-10-11T00:07:03.418Z,9.84
2022-10-11T00:09:30.536Z,9.82
2022-10-11T00:11:57.434Z,9.89
2022-10-11T00:14:25.839Z,9.92
2022-10-11T00:16:53.219Z,9.96
2022-10-11T00:19:20.406Z,9.92
2022-10-11T00:21:47.566Z,9.78
2022-10-11T00:24:16.064Z,9.74
2022-10-11T00:26:46.743Z,9.79
2022-10-11T00:29:14.240Z,9.75
2022-10-11T00:31:41.097Z,9.55
2022-10-11T00:34:08.782Z,9.70
2022-10-11T00:36:35.810Z,9.75
2022-10-11T00:39:03.102Z,9.76
2022-10-11T00:41:29.975Z,9.55
2022-10-11T00:44:15.411Z,9.57
2022-10-11T00:46:45.135Z,9.62
2022-10-11T00:49:23.520Z,9.67
2022-10-11T00:51:57.223Z,9.69
2022-10-11T00:54:25.996Z,9.68
2022-10-11T00:56:57.500Z,9.67
2022-10-11T00:59:28.491Z,9.58
2022-10-11T01:01:55.999Z,9.53
2022-10-11T01:04:22.971Z,9.53
2022-10-11T01:06:53.523Z,9.47
2022-10-11T01:09:21.532Z,9.41
2022-10-11T01:11:49.303Z,9.21
2022-10-11T01:14:36.497Z,9.12
2022-10-11T01:17:25.158Z,9.22
2022-10-11T01:20:30.760Z,9.22
2022-10-11T01:23:09.693Z,9.22
2022-10-11T01:25:57.629Z,9.19
2022-10-11T01:28:39.462Z,9.22
2022-10-11T01:31:26.598Z,9.27
2022-10-11T01:34:21.344Z,9.25
2022-10-11T01:37:14.720Z,9.14
2022-10-11T01:39:53.558Z,9.25
2022-10-11T01:42:20.881Z,9.26
2022-10-11T01:44:49.159Z,9.24
2022-10-11T01:47:23.596Z,9.18
2022-10-11T01:50:31.612Z,9.14
2022-10-11T01:53:24.967Z,9.07
2022-10-11T01:56:28.182Z,9.09
2022-10-11T01:59:15.262Z,9.11
2022-10-11T02:01:47.934Z,8.97
2022-10-11T02:04:34.741Z,8.90
2022-10-11T02:07:07.875Z,8.85
2022-10-11T02:10:08.051Z,8.82
2022-10-11T02:12:43.229Z,8.89
2022-10-11T02:15:11.673Z,8.90
2022-10-11T02:17:48.391Z,8.87
2022-10-11T02:20:20.032Z,8.82
2022-10-11T02:22:49.291Z,8.73
2022-10-11T02:25:23.391Z,8.85
2022-10-11T02:27:51.504Z,8.87
2022-10-11T02:30:18.493Z,8.92
2022-10-11T02:32:47.178Z,8.93
2022-10-11T02:35:14.286Z,8.88
2022-10-11T02:37:59.489Z,8.89
2022-10-11T02:40:27.813Z,8.90
2022-10-11T02:42:59.766Z,8.94
2022-10-11T02:45:34.965Z,9.00
2022-10-11T02:48:02.594Z,8.96
2022-10-11T02:50:29.430Z,9.05
2022-10-11T02:52:56.185Z,9.06
2022-10-11T02:55:23.051Z,9.04
2022-10-11T02:57:49.812Z,9.01
2022-10-11T03:00:16.743Z,9.01
2022-10-11T03:02:43.629Z,8.99
2022-10-11T03:05:10.407Z,8.97
2022-10-11T03:07:37.249Z,8.92
2022-10-11T03:10:05.809Z,8.92
2022-10-11T03:12:32.749Z,8.99
2022-10-11T03:14:59.573Z,8.97
2022-10-11T03:17:42.581Z,9.11
2022-10-11T03:20:09.923Z,9.13
2022-10-11T03:22:36.803Z,9.19
2022-10-11T03:25:04.798Z,9.12
2022-10-11T03:27:33.289Z,9.15
2022-10-11T03:30:00.535Z,9.17
2022-10-11T03:32:28.219Z,9.17
2022-10-11T03:34:55.391Z,9.12
2022-10-11T03:37:22.331Z,9.02
2022-10-11T03:39:49.211Z,8.97
2022-10-11T03:42:16.870Z,8.93
2022-10-11T03:44:43.609Z,8.84
2022-10-11T03:47:10.602Z,8.86
2022-10-11T03:49:42.596Z,8.91
2022-10-11T03:52:10.797Z,8.96
2022-10-11T03:54:37.592Z,8.86
2022-10-11T03:57:04.559Z,8.92
2022-10-11T03:59:31.509Z,8.91
2022-10-11T04:01:58.340Z,8.91
2022-10-11T04:04:25.147Z,8.92
2022-10-11T04:06:51.891Z,8.91
2022-10-11T04:09:18.761Z,8.92
2022-10-11T04:11:45.575Z,8.95
2022-10-11T04:14:12.356Z,8.99
2022-10-11T04:16:40.136Z,8.97
2022-10-11T04:19:06.960Z,8.97
2022-10-11T04:21:33.795Z,8.96
2022-10-11T04:24:00.669Z,9.03
2022-10-11T04:26:27.516Z,9.04
2022-10-11T04:28:54.431Z,9.15
2022-10-11T04:31:21.278Z,9.29
2022-10-11T04:33:48.193Z,9.37
2022-10-11T04:36:15.020Z,9.45
2022-10-11T04:38:41.921Z,9.55
2022-10-11T04:41:11.106Z,9.65
2022-10-11T04:43:38.151Z,9.66
2022-10-11T04:46:06.086Z,9.72
2022-10-11T04:48:33.282Z,9.68
2022-10-11T04:51:00.185Z,9.69
2022-10-11T04:53:27.051Z,9.74
2022-10-11T04:56:02.036Z,9.75
2022-10-11T04:58:30.356Z,9.71
2022-10-11T05:00:57.514Z,9.51
2022-10-11T05:03:24.907Z,9.39
2022-10-11T05:05:52.904Z,9.47
2022-10-11T05:08:20.237Z,9.33
2022-10-11T05:10:57.798Z,9.45
2022-10-11T05:13:25.217Z,9.55
2022-10-11T05:15:52.244Z,9.51
2022-10-11T05:18:19.321Z,9.35
2022-10-11T05:20:46.471Z,9.37
2022-10-11T05:23:13.422Z,9.36
2022-10-11T05:25:40.728Z,9.25
2022-10-11T05:28:07.770Z,9.46
2022-10-11T05:30:34.556Z,9.51
2022-10-11T05:33:01.427Z,9.52
2022-10-11T05:35:28.261Z,9.49
2022-10-11T05:37:55.071Z,9.62
2022-10-11T05:40:21.873Z,9.75
2022-10-11T05:42:48.692Z,9.84
2022-10-11T05:45:15.641Z,9.85
2022-10-11T05:47:42.516Z,9.96
2022-10-11T05:50:09.813Z,9.96
2022-10-11T05:52:36.675Z,10.05
2022-10-11T05:55:03.802Z,10.14
2022-10-11T05:57:30.703Z,10.10
2022-10-11T05:59:57.840Z,10.12
2022-10-11T06:02:24.648Z,10.13
2022-10-11T06:04:51.440Z,10.21
2022-10-11T06:07:18.307Z,10.23
2022-10-11T06:09:45.155Z,10.24
2022-10-11T06:12:12.033Z,10.50
2022-10-11T06:14:38.850Z,10.45
2022-10-11T06:17:05.894Z,10.59
2022-10-11T06:19:32.820Z,10.57
2022-10-11T06:21:59.639Z,10.67
2022-10-11T06:24:26.584Z,10.79
2022-10-11T06:26:54.496Z,10.82
2022-10-11T06:29:22.091Z,10.98
2022-10-11T06:31:49.239Z,11.17
2022-10-11T06:34:16.178Z,11.32
2022-10-11T06:36:43.079Z,11.40
2022-10-11T06:39:10.079Z,11.23
2022-10-11T06:41:36.977Z,11.44
2022-10-11T06:44:03.916Z,11.42
2022-10-11T06:46:31.760Z,11.42
2022-10-11T06:48:58.804Z,11.55
2022-10-11T06:51:25.927Z,11.64
2022-10-11T06:53:55.593Z,11.73
2022-10-11T06:56:22.692Z,11.85
2022-10-11T06:58:51.190Z,11.91
2022-10-11T07:01:20.069Z,12.01
2022-10-11T07:03:47.901Z,12.13
2022-10-11T07:06:17.763Z,12.09
2022-10-11T07:08:45.053Z,12.25
2022-10-11T07:11:16.779Z,12.27
2022-10-11T07:13:45.962Z,12.48
2022-10-11T07:16:13.128Z,12.56
2022-10-11T07:18:39.960Z,12.49
2022-10-11T07:21:09.475Z,12.75
2022-10-11T07:23:36.572Z,12.84
2022-10-11T07:26:04.420Z,13.17
2022-10-11T07:28:31.681Z,13.38
2022-10-11T07:30:59.320Z,13.71
2022-10-11T07:33:26.303Z,13.98
2022-10-11T07:35:57.091Z,14.17
2022-10-11T07:38:24.026Z,14.37
2022-10-11T07:40:50.858Z,14.63
2022-10-11T07:43:17.830Z,14.66
2022-10-11T07:45:51.401Z,14.64
2022-10-11T07:48:18.347Z,14.68
2022-10-11T07:50:46.086Z,14.84
2022-10-11T07:53:12.996Z,14.93
2022-10-11T07:55:40.245Z,15.09
2022-10-11T07:58:11.871Z,15.19
2022-10-11T08:00:39.780Z,15.30
2022-10-11T08:03:07.046Z,15.31
2022-10-11T08:05:34.508Z,15.48
2022-10-11T08:08:01.400Z,15.55
2022-10-11T08:10:28.497Z,15.48
2022-10-11T08:12:55.293Z,15.46
2022-10-11T08:15:22.241Z,15.63
2022-10-11T08:17:49.173Z,15.77
2022-10-11T08:20:16.197Z,15.87
2022-10-11T08:22:43.028Z,15.94
2022-10-11T08:25:09.832Z,15.98
2022-10-11T08:27:36.719Z,16.17
2022-10-11T08:30:04.525Z,16.16
2022-10-11T08:32:31.626Z,16.11
2022-10-11T08:34:58.442Z,16.39
2022-10-11T08:37:25.454Z,16.27
2022-10-11T08:39:52.575Z,16.45
2022-10-11T08:42:31.187Z,16.34
2022-10-11T08:45:16.694Z,16.64
2022-10-11T08:47:45.048Z,16.76
2022-10-11T08:50:19.022Z,16.74
2022-10-11T08:52:58.431Z,16.79
2022-10-11T08:55:45.030Z,16.94
2022-10-11T08:58:15.148Z,16.58
2022-10-11T09:00:42.717Z,16.99
2022-10-11T09:03:30.788Z,17.32
2022-10-11T09:06:20.395Z,17.13
2022-10-11T09:09:10.376Z,17.18
2022-10-11T09:12:05.737Z,17.42
2022-10-11T09:15:11.174Z,17.09
2022-10-11T09:17:50.880Z,17.56
2022-10-11T09:20:29.799Z,17.52
2022-10-11T09:23:11.383Z,17.60
2022-10-11T09:25:49.854Z,17.60
2022-10-11T09:28:43.099Z,17.64
2022-10-11T09:31:11.205Z,17.83
2022-10-11T09:33:47.008Z,17.79
2022-10-11T09:36:39.296Z,17.73
2022-10-11T09:39:33.888Z,17.93
2022-10-11T09:42:00.666Z,18.05
2022-10-11T09:44:36.730Z,18.16
2022-10-11T09:47:04.255Z,18.30
2022-10-11T09:49:36.781Z,18.26
2022-10-11T09:52:10.975Z,18.37
2022-10-11T09:54:43.908Z,17.96
2022-10-11T09:57:30.774Z,18.19
2022-10-11T10:00:23.785Z,18.23
2022-10-11T10:02:58.086Z,18.37
2022-10-11T10:05:30.120Z,18.62
2022-10-11T10:08:09.380Z,18.53
2022-10-11T10:11:03.087Z,18.35
2022-10-11T10:13:35.849Z,18.88
2022-10-11T10:16:04.278Z,18.84
2022-10-11T10:18:37.606Z,18.88
2022-10-11T10:21:07.932Z,18.94
2022-10-11T10:23:36.857Z,18.97
2022-10-11T10:26:19.058Z,18.99
2022-10-11T10:29:10.597Z,18.31
2022-10-11T10:35:03.772Z,18.77
2022-10-11T10:38:02.182Z,18.43
2022-10-11T10:40:45.462Z,18.95
2022-10-11T10:43:20.673Z,19.34
2022-10-11T10:46:24.311Z,18.91
2022-10-11T10:49:34.871Z,19.11
2022-10-11T10:52:06.418Z,19.33
2022-10-11T10:55:04.383Z,19.39
2022-10-11T10:57:56.983Z,19.57
2022-10-11T11:00:24.687Z,19.31
2022-10-11T11:03:22.228Z,19.44
2022-10-11T11:06:00.950Z,19.35
2022-10-11T11:08:30.669Z,19.50
2022-10-11T11:11:22.125Z,19.44
2022-10-11T11:14:14.884Z,19.72
2022-10-11T11:17:28.323Z,19.41
2022-10-11T11:20:03.866Z,19.82
2022-10-11T11:22:56.188Z,19.68
2022-10-11T11:25:35.256Z,19.78
2022-10-11T11:28:14.363Z,19.71
2022-10-11T11:31:10.226Z,19.66
2022-10-11T11:34:24.948Z,19.79
2022-10-11T11:36:54.726Z,19.62
2022-10-11T11:39:29.629Z,20.12
2022-10-11T11:42:12.373Z,19.49
2022-10-11T11:44:45.841Z,20.00
2022-10-11T11:47:17.856Z,20.54
2022-10-11T11:50:03.646Z,20.54
2022-10-11T11:52:41.493Z,20.75
2022-10-11T11:55:11.318Z,21.06
2022-10-11T11:57:44.745Z,21.21
2022-10-11T12:00:22.898Z,20.90
2022-10-11T12:03:02.041Z,21.23
2022-10-11T12:05:32.936Z,20.64
2022-10-11T12:08:01.919Z,20.87
2022-10-11T12:10:31.296Z,20.83
2022-10-11T12:13:18.624Z,21.28
2022-10-11T12:15:59.276Z,21.14
2022-10-11T12:18:26.505Z,20.18
2022-10-11T12:21:08.723Z,20.98
2022-10-11T12:23:44.402Z,20.93
2022-10-11T12:26:29.159Z,20.54
2022-10-11T12:29:03.867Z,20.28
2022-10-11T12:31:34.105Z,20.68
2022-10-11T12:34:01.091Z,20.97
2022-10-11T12:36:42.094Z,21.24
2022-10-11T12:39:20.758Z,21.20
2022-10-11T12:44:26.467Z,21.48
2022-10-11T12:46:59.361Z,21.05
2022-10-11T12:49:29.188Z,21.09
2022-10-11T12:52:03.862Z,21.00
2022-10-11T12:54:42.528Z,21.03
2022-10-11T12:57:12.084Z,20.94
2022-10-11T12:59:46.506Z,20.55
2022-10-11T13:02:28.908Z,20.82
2022-10-11T13:05:19.068Z,21.09
2022-10-11T13:07:46.574Z,21.13
2022-10-11T13:10:23.121Z,21.00
2022-10-11T13:12:50.145Z,21.08
2022-10-11T13:15:19.611Z,21.46
2022-10-11T13:17:48.655Z,21.63
2022-10-11T13:20:15.371Z,21.36
2022-10-11T13:22:42.310Z,20.53
2022-10-11T13:25:09.637Z,20.78
2022-10-11T13:27:37.105Z,20.89
2022-10-11T13:30:08.562Z,21.18
2022-10-11T13:32:36.549Z,21.30
2022-10-11T13:35:06.538Z,21.20
2022-10-11T13:37:42.788Z,21.49
2022-10-11T13:40:13.561Z,21.52
2022-10-11T13:42:40.796Z,21.19
2022-10-11T13:45:13.124Z,21.01
2022-10-11T13:47:40.393Z,21.09
2022-10-11T13:50:22.711Z,21.02
2022-10-11T13:53:00.314Z,21.00
2022-10-11T13:55:42.250Z,20.80
2022-10-11T13:58:18.378Z,21.23
2022-10-11T14:01:03.790Z,21.20
2022-10-11T14:03:40.952Z,21.40
2022-10-11T14:06:08.485Z,21.22
2022-10-11T14:08:47.323Z,21.26
2022-10-11T14:11:15.116Z,21.43
2022-10-11T14:13:44.129Z,21.20
2022-10-11T14:16:28.349Z,20.93
2022-10-11T14:18:58.062Z,20.94
2022-10-11T14:22:00.251Z,20.47
2022-10-11T14:24:27.567Z,20.48
2022-10-11T14:26:55.910Z,20.61
2022-10-11T14:29:34.060Z,20.64
2022-10-11T14:32:19.457Z,20.58
2022-10-11T14:34:47.891Z,20.59
2022-10-11T14:37:18.623Z,20.64
2022-10-11T14:39:47.783Z,20.55
2022-10-11T14:42:15.086Z,20.45
2022-10-11T14:44:42.146Z,20.41
2022-10-11T14:47:14.940Z,20.34
2022-10-11T14:49:42.112Z,20.22
2022-10-11T14:52:12.011Z,20.28
2022-10-11T14:54:39.314Z,20.24
2022-10-11T14:57:06.199Z,20.06
2022-10-11T14:59:37.744Z,19.91
2022-10-11T15:02:06.685Z,19.83
2022-10-11T15:04:33.740Z,19.61
2022-10-11T15:07:00.975Z,19.62
2022-10-11T15:09:27.980Z,19.42
2022-10-11T15:11:55.240Z,19.35
2022-10-11T15:14:23.855Z,19.27
2022-10-11T15:16:50.750Z,19.21
2022-10-11T15:19:24.183Z,19.14
2022-10-11T15:21:51.738Z,19.13
2022-10-11T15:24:21.900Z,19.18
2022-10-11T15:26:49.013Z,19.12
2022-10-11T15:29:20.404Z,19.02
2022-10-11T15:31:49.238Z,19.03
2022-10-11T15:34:16.809Z,18.95
2022-10-11T15:36:52.151Z,18.87
2022-10-11T15:39:24.415Z,18.81
2022-10-11T15:41:51.298Z,18.73
2022-10-11T15:44:18.075Z,18.63
2022-10-11T15:46:44.944Z,18.54
2022-10-11T15:49:13.473Z,18.42
2022-10-11T15:51:40.494Z,18.25
2022-10-11T15:54:07.322Z,18.13
2022-10-11T15:56:34.315Z,18.03
2022-10-11T15:59:02.029Z,17.91
2022-10-11T16:01:28.889Z,17.76
2022-10-11T16:03:55.820Z,17.65
2022-10-11T16:06:22.996Z,17.56
2022-10-11T16:08:50.108Z,17.48
2022-10-11T16:11:17.075Z,17.37
2022-10-11T16:13:45.064Z,17.30
2022-10-11T16:16:12.419Z,17.20
2022-10-11T16:18:39.804Z,17.12
2022-10-11T16:21:11.098Z,17.03
2022-10-11T16:23:38.764Z,16.96
2022-10-11T16:26:08.322Z,16.87
2022-10-11T16:28:35.891Z,16.72
2022-10-11T16:31:07.970Z,16.65
2022-10-11T16:33:34.943Z,16.61
2022-10-11T16:36:25.998Z,16.47
2022-10-11T16:38:52.837Z,16.53
2022-10-11T16:41:19.659Z,16.45
2022-10-11T16:43:51.029Z,16.15
2022-10-11T16:46:18.672Z,15.92
2022-10-11T16:48:45.539Z,15.98
2022-10-11T16:51:12.431Z,15.72
2022-10-11T16:53:39.159Z,15.70
2022-10-11T16:56:11.224Z,15.80
2022-10-11T16:58:38.072Z,15.77
2022-10-11T17:01:09.874Z,15.76
2022-10-11T17:03:37.257Z,15.71
2022-10-11T17:06:05.193Z,15.65
2022-10-11T17:08:32.281Z,15.62
2022-10-11T17:10:59.227Z,15.49
2022-10-11T17:13:26.099Z,15.42
2022-10-11T17:15:53.130Z,15.31
2022-10-11T17:18:19.973Z,15.30
2022-10-11T17:20:46.833Z,15.28
2022-10-11T17:23:13.795Z,15.31
2022-10-11T17:25:42.675Z,15.18
2022-10-11T17:28:09.793Z,15.17
2022-10-11T17:30:37.397Z,15.07
2022-10-11T17:33:04.351Z,15.01
2022-10-11T17:35:32.363Z,15.09
2022-10-11T17:38:05.756Z,15.10
2022-10-11T17:40:33.059Z,15.03
2022-10-11T17:43:00.015Z,15.05
2022-10-11T17:45:26.831Z,15.02
2022-10-11T17:47:53.943Z,14.85
2022-10-11T17:50:20.983Z,14.79
2022-10-11T17:52:47.945Z,14.75
2022-10-11T17:55:15.032Z,14.72
2022-10-11T17:57:42.068Z,14.72
2022-10-11T18:00:09.920Z,14.66
2022-10-11T18:02:38.561Z,14.63
2022-10-11T18:05:06.785Z,14.56
2022-10-11T18:07:34.229Z,14.52
2022-10-11T18:10:01.166Z,14.50
2022-10-11T18:12:28.152Z,14.51
2022-10-11T18:14:54.986Z,14.47
2022-10-11T18:17:21.874Z,14.45
2022-10-11T18:19:48.919Z,14.42
2022-10-11T18:22:15.879Z,14.38
2022-10-11T18:24:42.682Z,14.35
2022-10-11T18:27:09.529Z,14.26
2022-10-11T18:29:38.033Z,14.17
2022-10-11T18:32:05.213Z,14.11
2022-10-11T18:34:33.446Z,14.14
2022-10-11T18:37:00.637Z,14.12
2022-10-11T18:39:27.597Z,14.11
2022-10-11T18:41:54.484Z,14.11
2022-10-11T18:44:21.314Z,14.11
2022-10-11T18:46:50.225Z,14.09
2022-10-11T18:49:17.122Z,14.03
2022-10-11T18:51:45.385Z,13.97
2022-10-11T18:54:15.398Z,13.96
2022-10-11T18:56:45.761Z,13.91
2022-10-11T18:59:12.761Z,13.89
2022-10-11T19:01:41.874Z,13.88
2022-10-11T19:04:09.820Z,13.83
2022-10-11T19:06:43.040Z,13.76
2022-10-11T19:09:12.707Z,13.75
2022-10-11T19:11:40.208Z,13.72
2022-10-11T19:14:11.362Z,13.68
2022-10-11T19:16:41.841Z,13.62
2022-10-11T19:19:10.627Z,13.55
2022-10-11T19:21:38.162Z,13.43
2022-10-11T19:24:05.461Z,13.36
2022-10-11T19:26:35.095Z,13.29
2022-10-11T19:29:05.468Z,13.22
2022-10-11T19:31:34.119Z,13.17
2022-10-11T19:34:01.041Z,13.13
2022-10-11T19:36:31.398Z,13.11
2022-10-11T19:39:00.978Z,13.09
2022-10-11T19:41:27.824Z,13.07
2022-10-11T19:43:55.417Z,13.04
2022-10-11T19:46:44.328Z,12.97
2022-10-11T19:49:09.684Z,12.92
2022-10-11T19:51:38.106Z,12.89
2022-10-11T19:54:07.999Z,12.85
2022-10-11T19:56:35.238Z,12.86
2022-10-11T19:59:02.516Z,12.84
2022-10-11T20:01:30.964Z,12.79
2022-10-11T20:04:09.369Z,12.78
2022-10-11T20:06:39.055Z,12.79
2022-10-11T20:09:28.496Z,12.79
2022-10-11T20:11:56.657Z,12.79
2022-10-11T20:14:23.517Z,12.73
2022-10-11T20:16:51.058Z,12.66
2022-10-11T20:19:18.617Z,12.65
2022-10-11T20:21:45.551Z,12.62
2022-10-11T20:24:12.569Z,12.63
2022-10-11T20:26:39.928Z,12.64
2022-10-11T20:29:07.185Z,12.43
2022-10-11T20:31:38.070Z,12.28
2022-10-11T20:34:07.326Z,12.39
2022-10-11T20:36:36.098Z,12.33
2022-10-11T20:39:04.779Z,12.28
2022-10-11T20:41:34.669Z,12.16
2022-10-11T20:44:02.582Z,12.00
2022-10-11T20:46:32.294Z,12.05
2022-10-11T20:49:04.621Z,12.11
2022-10-11T20:51:32.876Z,12.17
2022-10-11T20:54:00.692Z,12.16
2022-10-11T20:56:28.134Z,12.14
2022-10-11T20:58:56.264Z,12.08
2022-10-11T21:01:32.158Z,12.10
2022-10-11T21:04:00.095Z,12.12
2022-10-11T21:06:27.503Z,12.08
2022-10-11T21:08:55.392Z,12.04
2022-10-11T21:11:28.551Z,12.05
2022-10-11T21:13:59.996Z,12.02
2022-10-11T21:16:27.413Z,11.99
2022-10-11T21:18:56.002Z,11.94
2022-10-11T21:21:25.998Z,11.85
2022-10-11T21:24:00.240Z,11.79
2022-10-11T21:26:27.500Z,11.73
2022-10-11T21:28:54.575Z,11.78
2022-10-11T21:31:22.085Z,11.79
2022-10-11T21:33:49.517Z,11.80
2022-10-11T21:36:18.789Z,11.69
2022-10-11T21:38:46.249Z,11.52
2022-10-11T21:41:15.782Z,11.49
2022-10-11T21:43:42.728Z,11.53
2022-10-11T21:46:16.263Z,11.33
2022-10-11T21:48:43.451Z,11.13
2022-10-11T21:51:16.373Z,11.19
2022-10-11T21:53:43.226Z,11.23
2022-10-11T21:56:10.036Z,11.14
2022-10-11T21:58:37.168Z,11.12
2022-10-11T22:01:04.044Z,11.06
2022-10-11T22:03:30.930Z,10.69
2022-10-11T22:05:57.744Z,10.83
2022-10-11T22:08:24.621Z,10.94
2022-10-11T22:10:57.111Z,10.85
2022-10-11T22:13:25.157Z,11.02
2022-10-11T22:15:52.038Z,11.07
2022-10-11T22:18:18.901Z,11.09
2022-10-11T22:20:45.691Z,11.09
2022-10-11T22:23:12.623Z,11.06
2022-10-11T22:25:39.819Z,11.05
2022-10-11T22:28:07.273Z,10.88
2022-10-11T22:30:34.648Z,10.43
2022-10-11T22:33:01.462Z,10.21
2022-10-11T22:35:28.662Z,10.01
2022-10-11T22:37:56.465Z,10.00
2022-10-11T22:40:23.235Z,10.14
2022-10-11T22:42:50.002Z,10.14
2022-10-11T22:45:16.796Z,10.13
2022-10-11T22:47:43.578Z,10.29
2022-10-11T22:50:10.531Z,10.39
2022-10-11T22:52:37.517Z,10.40
2022-10-11T22:55:04.516Z,10.35
2022-10-11T22:57:31.380Z,10.28
2022-10-11T22:59:58.147Z,10.39
2022-10-11T23:02:24.975Z,10.44
2022-10-11T23:04:53.818Z,10.45
2022-10-11T23:07:20.576Z,10.46
2022-10-11T23:09:48.080Z,10.44
2022-10-11T23:12:14.915Z,10.43
2022-10-11T23:14:41.718Z,10.46
2022-10-11T23:17:08.538Z,10.50
2022-10-11T23:19:37.067Z,10.49
2022-10-11T23:22:03.933Z,10.52
2022-10-11T23:24:30.694Z,10.45
2022-10-11T23:26:57.568Z,10.41
2022-10-11T23:29:24.427Z,10.45
2022-10-11T23:31:51.486Z,10.49
2022-10-11T23:34:18.281Z,10.54
2022-10-11T23:36:45.062Z,10.57
2022-10-11T23:39:12.847Z,10.59
2022-10-11T23:41:39.676Z,10.61
2022-10-11T23:44:06.512Z,10.63
2022-10-11T23:46:33.341Z,10.67
2022-10-11T23:49:00.205Z,10.58
2022-10-11T23:51:27.026Z,10.53
2022-10-11T23:53:54.109Z,10.68
2022-10-11T23:56:21.306Z,10.73
2022-10-11T23:58:48.232Z,10.75
